createdAt,value
2022-10-27T00:00:56.137Z,83.61
2022-10-27T00:03:23.746Z,83.21
2022-10-27T00:05:51.232Z,83.23
2022-10-27T00:08:21.973Z,83.26
2022-10-27T00:11:00.978Z,83.27
2022-10-27T00:13:29.536Z,83.53
2022-10-27T00:16:02.283Z,83.53
2022-10-27T00:18:29.870Z,83.42
2022-10-27T00:21:09.313Z,83.46
2022-10-27T00:23:38.356Z,83.74
2022-10-27T00:26:08.815Z,83.67
2022-10-27T00:28:36.522Z,83.36
2022-10-27T00:31:07.308Z,83.60
2022-10-27T00:33:35.155Z,83.71
2022-10-27T00:36:12.244Z,83.73
2022-10-27T00:38:40.192Z,83.83
2022-10-27T00:41:22.198Z,83.64
2022-10-27T00:43:49.683Z,83.62
2022-10-27T00:46:26.263Z,83.59
2022-10-27T00:48:59.243Z,83.58
2022-10-27T00:51:27.183Z,83.92
2022-10-27T00:53:55.906Z,83.78
2022-10-27T00:56:24.652Z,83.96
2022-10-27T00:58:52.200Z,84.08
2022-10-27T01:01:19.821Z,84.45
2022-10-27T01:03:47.918Z,84.51
2022-10-27T01:06:16.199Z,84.73
2022-10-27T01:08:44.472Z,84.99
2022-10-27T01:11:12.050Z,84.97
2022-10-27T01:13:39.712Z,85.37
2022-10-27T01:16:34.822Z,85.17
2022-10-27T01:19:05.070Z,85.97
2022-10-27T01:21:32.531Z,85.79
2022-10-27T01:24:36.862Z,85.73
2022-10-27T01:27:38.464Z,86.03
2022-10-27T01:30:20.976Z,86.04
2022-10-27T01:33:21.292Z,86.26
2022-10-27T01:35:54.256Z,86.29
2022-10-27T01:38:30.121Z,86.20
2022-10-27T01:41:06.793Z,86.34
2022-10-27T01:43:36.129Z,86.31
2022-10-27T01:46:06.931Z,86.22
2022-10-27T01:48:36.686Z,86.11
2022-10-27T01:51:04.781Z,86.08
2022-10-27T01:53:36.690Z,86.31
2022-10-27T01:56:04.129Z,86.38
2022-10-27T01:58:40.908Z,86.51
2022-10-27T02:01:26.702Z,86.25
2022-10-27T02:04:02.017Z,86.44
2022-10-27T02:06:58.563Z,86.71
2022-10-27T02:09:41.606Z,86.35
2022-10-27T02:12:21.397Z,86.84
2022-10-27T02:14:53.677Z,86.78
2022-10-27T02:17:23.379Z,86.77
2022-10-27T02:19:55.053Z,86.99
2022-10-27T02:22:27.110Z,86.60
2022-10-27T02:24:55.008Z,86.73
2022-10-27T02:27:35.642Z,86.59
2022-10-27T02:30:05.110Z,86.63
2022-10-27T02:32:34.166Z,86.27
2022-10-27T02:35:02.812Z,86.54
2022-10-27T02:37:37.633Z,86.41
2022-10-27T02:40:05.863Z,86.74
2022-10-27T02:42:33.382Z,86.45
2022-10-27T02:45:00.919Z,86.37
2022-10-27T02:47:28.392Z,86.57
2022-10-27T02:49:55.861Z,86.26
2022-10-27T02:52:23.342Z,86.37
2022-10-27T02:54:50.849Z,86.46
2022-10-27T02:57:19.122Z,86.20
2022-10-27T02:59:49.628Z,86.53
2022-10-27T03:02:20.479Z,86.44
2022-10-27T03:04:47.975Z,86.57
2022-10-27T03:07:15.683Z,86.60
2022-10-27T03:09:43.130Z,86.61
2022-10-27T03:12:10.758Z,86.69
2022-10-27T03:14:38.229Z,86.61
2022-10-27T03:17:05.844Z,86.25
2022-10-27T03:19:33.575Z,86.44
2022-10-27T03:22:01.132Z,86.42
2022-10-27T03:24:28.641Z,86.38
2022-10-27T03:26:56.175Z,86.66
2022-10-27T03:29:23.705Z,86.54
2022-10-27T03:31:51.300Z,86.50
2022-10-27T03:34:20.914Z,86.57
2022-10-27T03:36:48.783Z,86.69
2022-10-27T03:39:16.292Z,86.47
2022-10-27T03:41:43.853Z,86.41
2022-10-27T03:44:11.271Z,86.45
2022-10-27T03:46:38.818Z,86.81
2022-10-27T03:49:06.390Z,86.69
2022-10-27T03:51:33.894Z,86.75
2022-10-27T03:54:01.356Z,86.58
2022-10-27T03:56:28.895Z,86.47
2022-10-27T03:58:56.386Z,86.64
2022-10-27T04:01:24.271Z,87.07
2022-10-27T04:03:51.817Z,86.90
2022-10-27T04:06:19.809Z,86.93
2022-10-27T04:08:47.395Z,86.95
2022-10-27T04:11:14.937Z,86.87
2022-10-27T04:13:42.563Z,87.30
2022-10-27T04:16:10.178Z,87.16
2022-10-27T04:18:37.668Z,87.12
2022-10-27T04:21:06.587Z,86.81
2022-10-27T04:23:34.161Z,87.06
2022-10-27T04:26:02.082Z,87.15
2022-10-27T04:28:29.582Z,86.88
2022-10-27T04:30:57.332Z,87.03
2022-10-27T04:33:28.137Z,87.23
2022-10-27T04:35:58.200Z,87.15
2022-10-27T04:38:25.697Z,87.32
2022-10-27T04:40:53.235Z,87.56
2022-10-27T04:43:20.777Z,87.41
2022-10-27T04:45:48.409Z,87.46
2022-10-27T04:48:15.904Z,87.63
2022-10-27T04:50:43.404Z,87.61
2022-10-27T04:53:10.959Z,87.94
2022-10-27T04:55:38.812Z,88.05
2022-10-27T04:58:09.288Z,88.22
2022-10-27T05:00:37.349Z,88.24
2022-10-27T05:03:04.993Z,88.25
2022-10-27T05:05:32.717Z,88.43
2022-10-27T05:08:02.352Z,88.40
2022-10-27T05:10:31.998Z,88.58
2022-10-27T05:12:59.708Z,88.62
2022-10-27T05:15:27.694Z,89.03
2022-10-27T05:17:55.364Z,88.86
2022-10-27T05:20:23.719Z,88.80
2022-10-27T05:22:51.310Z,89.14
2022-10-27T05:25:18.822Z,89.43
2022-10-27T05:27:46.345Z,89.32
2022-10-27T05:30:15.310Z,89.34
2022-10-27T05:32:44.789Z,89.58
2022-10-27T05:35:14.989Z,89.42
2022-10-27T05:37:46.717Z,89.24
2022-10-27T05:40:15.165Z,89.55
2022-10-27T05:42:56.794Z,89.90
2022-10-27T05:45:24.851Z,90.00
2022-10-27T05:48:04.108Z,90.15
2022-10-27T05:50:33.360Z,90.38
2022-10-27T05:53:01.350Z,90.07
2022-10-27T05:55:29.171Z,90.33
2022-10-27T05:57:59.078Z,90.19
2022-10-27T06:00:32.239Z,90.19
2022-10-27T06:03:01.452Z,90.24
2022-10-27T06:05:30.745Z,90.33
2022-10-27T06:07:59.073Z,90.10
2022-10-27T06:10:29.324Z,89.88
2022-10-27T06:13:05.378Z,89.82
2022-10-27T06:15:34.954Z,89.91
2022-10-27T06:18:02.913Z,89.97
2022-10-27T06:20:30.807Z,90.11
2022-10-27T06:22:58.715Z,89.72
2022-10-27T06:25:26.241Z,89.87
2022-10-27T06:27:54.044Z,90.00
2022-10-27T06:30:22.657Z,89.94
2022-10-27T06:32:50.407Z,89.98
2022-10-27T06:35:18.837Z,90.17
2022-10-27T06:37:47.104Z,90.34
2022-10-27T06:40:17.009Z,89.72
2022-10-27T06:43:05.551Z,90.07
2022-10-27T06:45:34.535Z,90.41
2022-10-27T06:48:02.305Z,89.99
2022-10-27T06:50:30.246Z,90.18
2022-10-27T06:52:59.000Z,90.39
2022-10-27T06:55:26.623Z,90.27
2022-10-27T06:57:54.445Z,89.99
2022-10-27T07:00:22.547Z,90.33
2022-10-27T07:02:50.511Z,90.14
2022-10-27T07:05:18.491Z,90.19
2022-10-27T07:07:55.893Z,90.13
2022-10-27T07:10:23.719Z,90.22
2022-10-27T07:13:09.621Z,90.18
2022-10-27T07:15:39.311Z,90.28
2022-10-27T07:18:08.932Z,90.28
2022-10-27T07:20:39.284Z,90.36
2022-10-27T07:23:09.922Z,90.27
2022-10-27T07:25:38.274Z,90.26
2022-10-27T07:28:06.680Z,90.35
2022-10-27T07:30:38.323Z,90.52
2022-10-27T07:33:06.283Z,90.37
2022-10-27T07:35:33.977Z,90.52
2022-10-27T07:38:01.926Z,90.58
2022-10-27T07:40:32.682Z,90.55
2022-10-27T07:43:05.221Z,90.58
2022-10-27T07:45:41.320Z,90.57
2022-10-27T07:48:14.924Z,90.51
2022-10-27T07:50:44.583Z,90.64
2022-10-27T07:53:15.499Z,90.73
2022-10-27T07:55:43.019Z,90.75
2022-10-27T07:58:15.696Z,90.72
2022-10-27T08:00:48.223Z,90.45
2022-10-27T08:03:18.885Z,90.43
2022-10-27T08:05:46.798Z,90.51
2022-10-27T08:08:15.614Z,90.59
2022-10-27T08:10:44.563Z,90.71
2022-10-27T08:13:12.993Z,90.71
2022-10-27T08:15:41.587Z,90.71
2022-10-27T08:18:10.912Z,90.62
2022-10-27T08:20:41.424Z,90.71
2022-10-27T08:23:15.699Z,90.72
2022-10-27T08:25:43.715Z,90.56
2022-10-27T08:28:12.809Z,90.61
2022-10-27T08:30:49.766Z,90.10
2022-10-27T08:33:21.204Z,90.34
2022-10-27T08:35:50.516Z,90.51
2022-10-27T08:38:18.871Z,90.24
2022-10-27T08:41:08.208Z,90.18
2022-10-27T08:43:55.837Z,90.37
2022-10-27T08:46:46.723Z,90.15
2022-10-27T08:49:34.729Z,90.23
2022-10-27T08:52:23.996Z,90.56
2022-10-27T08:55:01.086Z,90.10
2022-10-27T09:00:06.456Z,90.46
2022-10-27T09:03:20.447Z,90.23
2022-10-27T09:06:15.259Z,90.20
2022-10-27T09:09:06.892Z,89.84
2022-10-27T09:11:55.705Z,90.25
2022-10-27T09:14:27.808Z,90.63
2022-10-27T09:17:00.100Z,90.52
2022-10-27T09:19:39.640Z,90.11
2022-10-27T09:22:17.056Z,90.48
2022-10-27T09:25:12.937Z,90.46
2022-10-27T09:27:44.148Z,89.95
2022-10-27T09:30:14.020Z,90.50
2022-10-27T09:32:48.193Z,90.20
2022-10-27T09:35:26.148Z,90.07
2022-10-27T09:37:54.071Z,89.99
2022-10-27T09:40:23.280Z,90.10
2022-10-27T09:42:55.408Z,90.19
2022-10-27T09:45:26.030Z,89.77
2022-10-27T09:48:03.867Z,90.00
2022-10-27T09:50:41.030Z,89.97
2022-10-27T09:53:48.212Z,90.24
2022-10-27T09:56:24.785Z,89.99
2022-10-27T09:59:02.641Z,90.66
2022-10-27T10:01:57.535Z,90.53
2022-10-27T10:04:46.854Z,90.31
2022-10-27T10:07:37.351Z,90.74
2022-10-27T10:10:21.892Z,90.49
2022-10-27T10:13:04.398Z,90.55
2022-10-27T10:15:37.749Z,91.03
2022-10-27T10:18:21.244Z,90.72
2022-10-27T10:21:00.646Z,90.54
2022-10-27T10:23:35.223Z,90.84
2022-10-27T10:26:15.050Z,90.96
2022-10-27T10:28:44.537Z,90.69
2022-10-27T10:31:23.508Z,90.02
2022-10-27T10:33:51.500Z,90.53
2022-10-27T10:36:24.992Z,89.92
2022-10-27T10:38:56.570Z,89.87
2022-10-27T10:41:25.880Z,89.60
2022-10-27T10:44:08.405Z,89.27
2022-10-27T10:46:38.923Z,88.44
2022-10-27T10:49:18.432Z,88.15
2022-10-27T10:51:51.203Z,87.76
2022-10-27T10:54:26.770Z,87.05
2022-10-27T10:56:55.811Z,87.00
2022-10-27T10:59:28.715Z,86.88
2022-10-27T11:02:06.218Z,86.74
2022-10-27T11:04:42.843Z,86.04
2022-10-27T11:07:25.377Z,86.04
2022-10-27T11:10:10.252Z,85.31
2022-10-27T11:12:39.736Z,85.70
2022-10-27T11:15:46.080Z,84.97
2022-10-27T11:18:22.980Z,85.12
2022-10-27T11:20:57.239Z,84.73
2022-10-27T11:23:34.178Z,84.75
2022-10-27T11:26:03.114Z,84.61
2022-10-27T11:28:53.893Z,84.87
2022-10-27T11:31:53.981Z,84.72
2022-10-27T11:34:56.427Z,85.13
2022-10-27T11:37:35.841Z,85.07
2022-10-27T11:40:57.554Z,84.98
2022-10-27T11:44:02.147Z,85.22
2022-10-27T11:46:43.467Z,85.27
2022-10-27T11:49:21.045Z,85.25
2022-10-27T11:52:30.817Z,84.94
2022-10-27T11:55:01.037Z,85.13
2022-10-27T11:57:49.765Z,85.42
2022-10-27T12:00:29.383Z,85.32
2022-10-27T12:03:00.142Z,85.29
2022-10-27T12:05:27.810Z,84.89
2022-10-27T12:07:58.392Z,85.00
2022-10-27T12:11:06.238Z,84.49
2022-10-27T12:13:55.792Z,84.27
2022-10-27T12:17:06.558Z,84.34
2022-10-27T12:19:42.015Z,84.20
2022-10-27T12:22:18.488Z,84.18
2022-10-27T12:24:56.646Z,84.44
2022-10-27T12:27:29.361Z,83.97
2022-10-27T12:30:03.559Z,84.11
2022-10-27T12:32:43.353Z,84.10
2022-10-27T12:35:16.629Z,84.39
2022-10-27T12:38:08.205Z,84.07
2022-10-27T12:41:09.663Z,84.29
2022-10-27T12:43:42.483Z,84.38
2022-10-27T12:46:21.993Z,84.34
2022-10-27T12:48:55.179Z,85.05
2022-10-27T12:51:37.567Z,84.72
2022-10-27T12:54:34.463Z,84.49
2022-10-27T12:57:01.950Z,85.06
2022-10-27T13:00:06.843Z,84.73
2022-10-27T13:02:44.024Z,84.74
2022-10-27T13:05:30.528Z,85.22
2022-10-27T13:08:16.162Z,85.28
2022-10-27T13:11:30.300Z,85.34
2022-10-27T13:14:25.907Z,85.12
2022-10-27T13:17:01.425Z,85.33
2022-10-27T13:22:32.310Z,84.91
2022-10-27T13:25:12.485Z,85.23
2022-10-27T13:27:48.460Z,85.19
2022-10-27T13:30:21.935Z,84.88
2022-10-27T13:32:49.463Z,84.96
2022-10-27T13:35:20.796Z,84.83
2022-10-27T13:38:07.845Z,84.75
2022-10-27T13:40:39.812Z,84.62
2022-10-27T13:43:22.572Z,84.59
2022-10-27T13:45:54.880Z,85.32
2022-10-27T13:48:22.933Z,85.36
2022-10-27T13:50:52.333Z,85.55
2022-10-27T13:53:19.808Z,85.45
2022-10-27T13:55:52.607Z,86.11
2022-10-27T13:58:20.175Z,86.77
2022-10-27T14:01:14.827Z,87.00
2022-10-27T14:04:22.937Z,86.95
2022-10-27T14:07:22.834Z,87.50
2022-10-27T14:09:51.558Z,87.80
2022-10-27T14:12:37.760Z,88.13
2022-10-27T14:15:11.160Z,88.22
2022-10-27T14:17:43.089Z,88.14
2022-10-27T14:20:20.661Z,88.63
2022-10-27T14:22:52.049Z,88.68
2022-10-27T14:25:26.141Z,89.06
2022-10-27T14:28:08.980Z,88.87
2022-10-27T14:30:36.561Z,89.24
2022-10-27T14:33:24.651Z,89.47
2022-10-27T14:38:51.273Z,89.64
2022-10-27T14:41:20.998Z,89.86
2022-10-27T14:43:53.080Z,90.04
2022-10-27T14:46:24.087Z,90.41
2022-10-27T14:49:32.199Z,90.25
2022-10-27T14:52:06.564Z,90.15
2022-10-27T14:54:34.599Z,90.54
2022-10-27T14:57:37.176Z,90.33
2022-10-27T15:00:38.879Z,90.62
2022-10-27T15:03:17.936Z,90.93
2022-10-27T15:05:48.392Z,91.19
2022-10-27T15:08:20.933Z,91.19
2022-10-27T15:10:52.095Z,91.31
2022-10-27T15:13:22.286Z,91.37
2022-10-27T15:15:51.011Z,91.37
2022-10-27T15:18:27.224Z,91.55
2022-10-27T15:20:56.076Z,91.48
2022-10-27T15:23:24.039Z,91.58
2022-10-27T15:25:56.960Z,91.60
2022-10-27T15:28:32.696Z,91.71
2022-10-27T15:31:01.316Z,91.78
2022-10-27T15:33:28.721Z,91.94
2022-10-27T15:36:09.017Z,91.84
2022-10-27T15:38:36.622Z,91.70
2022-10-27T15:41:11.029Z,91.75
2022-10-27T15:43:39.758Z,91.75
2022-10-27T15:46:18.493Z,91.53
2022-10-27T15:48:53.623Z,91.73
2022-10-27T15:51:21.732Z,91.27
2022-10-27T15:53:55.221Z,91.37
2022-10-27T15:56:23.144Z,91.04
2022-10-27T15:59:13.386Z,91.14
2022-10-27T16:01:43.095Z,91.31
2022-10-27T16:04:21.206Z,91.43
2022-10-27T16:06:49.255Z,91.58
2022-10-27T16:09:36.136Z,91.26
2022-10-27T16:12:04.357Z,91.56
2022-10-27T16:14:31.906Z,91.71
2022-10-27T16:17:00.242Z,91.78
2022-10-27T16:19:27.960Z,91.82
2022-10-27T16:21:55.536Z,91.79
2022-10-27T16:24:24.540Z,92.06
2022-10-27T16:26:53.166Z,92.07
2022-10-27T16:29:23.909Z,91.95
2022-10-27T16:31:51.441Z,91.74
2022-10-27T16:34:23.818Z,92.08
2022-10-27T16:36:53.317Z,91.85
2022-10-27T16:39:20.833Z,92.24
2022-10-27T16:41:48.383Z,91.76
2022-10-27T16:44:16.278Z,91.95
2022-10-27T16:46:44.259Z,92.12
2022-10-27T16:49:11.796Z,92.25
2022-10-27T16:51:40.540Z,91.81
2022-10-27T16:54:08.061Z,92.14
2022-10-27T16:56:46.505Z,91.91
2022-10-27T16:59:14.085Z,92.06
2022-10-27T17:01:41.704Z,91.68
2022-10-27T17:04:09.682Z,91.97
2022-10-27T17:06:37.164Z,91.94
2022-10-27T17:09:04.677Z,91.85
2022-10-27T17:11:32.191Z,91.64
2022-10-27T17:13:59.790Z,91.63
2022-10-27T17:16:27.303Z,91.46
2022-10-27T17:18:54.855Z,91.53
2022-10-27T17:21:22.596Z,91.36
2022-10-27T17:23:51.693Z,91.48
2022-10-27T17:26:20.163Z,91.21
2022-10-27T17:28:48.999Z,91.19
2022-10-27T17:31:20.908Z,91.16
2022-10-27T17:33:50.800Z,90.96
2022-10-27T17:36:18.260Z,90.75
2022-10-27T17:38:45.761Z,91.01
2022-10-27T17:41:13.843Z,90.74
2022-10-27T17:43:41.549Z,90.64
2022-10-27T17:46:13.908Z,90.77
2022-10-27T17:48:49.699Z,90.70
2022-10-27T17:51:22.619Z,90.78
2022-10-27T17:53:51.979Z,90.93
2022-10-27T17:56:25.857Z,90.62
2022-10-27T17:58:53.577Z,90.79
2022-10-27T18:01:39.754Z,90.11
2022-10-27T18:04:09.889Z,90.35
2022-10-27T18:06:38.783Z,90.28
2022-10-27T18:09:06.711Z,90.33
2022-10-27T18:11:37.063Z,90.27
2022-10-27T18:14:08.383Z,90.24
2022-10-27T18:16:36.900Z,90.14
2022-10-27T18:19:10.557Z,90.46
2022-10-27T18:21:41.268Z,90.41
2022-10-27T18:24:10.718Z,90.38
2022-10-27T18:26:40.282Z,90.26
2022-10-27T18:29:09.793Z,90.37
2022-10-27T18:31:38.990Z,90.28
2022-10-27T18:34:12.162Z,90.18
2022-10-27T18:36:41.595Z,90.11
2022-10-27T18:39:15.695Z,89.94
2022-10-27T18:41:43.880Z,89.96
2022-10-27T18:44:11.838Z,89.87
2022-10-27T18:46:39.686Z,89.60
2022-10-27T18:49:12.146Z,89.62
2022-10-27T18:51:48.189Z,89.66
2022-10-27T18:54:15.767Z,89.59
2022-10-27T18:56:43.398Z,89.88
2022-10-27T18:59:13.510Z,89.53
2022-10-27T19:01:43.417Z,89.30
2022-10-27T19:04:11.133Z,89.46
2022-10-27T19:06:38.905Z,89.54
2022-10-27T19:09:06.675Z,89.47
2022-10-27T19:11:35.766Z,89.59
2022-10-27T19:14:04.396Z,89.44
2022-10-27T19:16:32.285Z,89.59
2022-10-27T19:19:00.528Z,89.50
2022-10-27T19:21:28.987Z,89.66
2022-10-27T19:23:59.062Z,89.45
2022-10-27T19:26:29.078Z,89.32
2022-10-27T19:28:57.897Z,89.30
2022-10-27T19:31:36.313Z,89.35
2022-10-27T19:34:05.303Z,88.97
2022-10-27T19:36:34.532Z,89.21
2022-10-27T19:39:06.343Z,89.07
2022-10-27T19:41:37.942Z,88.94
2022-10-27T19:44:06.300Z,88.94
2022-10-27T19:46:34.554Z,88.83
2022-10-27T19:49:07.470Z,88.79
2022-10-27T19:51:39.011Z,88.99
2022-10-27T19:54:11.045Z,88.66
2022-10-27T19:56:47.353Z,88.86
2022-10-27T19:59:17.871Z,88.88
2022-10-27T20:01:50.400Z,88.92
2022-10-27T20:04:21.487Z,88.99
2022-10-27T20:06:49.201Z,88.93
2022-10-27T20:09:18.702Z,88.84
2022-10-27T20:11:46.983Z,88.79
2022-10-27T20:14:14.818Z,88.99
2022-10-27T20:16:44.639Z,88.93
2022-10-27T20:19:17.709Z,88.73
2022-10-27T20:21:45.644Z,88.92
2022-10-27T20:24:13.838Z,88.72
2022-10-27T20:26:46.652Z,88.84
2022-10-27T20:29:15.241Z,88.67
2022-10-27T20:31:45.086Z,88.84
2022-10-27T20:34:13.503Z,88.61
2022-10-27T20:36:42.332Z,88.50
2022-10-27T20:39:11.284Z,88.53
2022-10-27T20:41:38.877Z,88.71
2022-10-27T20:44:06.780Z,88.48
2022-10-27T20:46:34.963Z,88.85
2022-10-27T20:49:02.559Z,89.16
2022-10-27T20:51:31.789Z,88.96
2022-10-27T20:54:00.234Z,89.28
2022-10-27T20:56:30.160Z,89.30
2022-10-27T20:58:57.667Z,88.84
2022-10-27T21:01:32.696Z,89.17
2022-10-27T21:04:11.892Z,88.94
2022-10-27T21:06:42.077Z,89.37
2022-10-27T21:09:12.605Z,89.00
2022-10-27T21:11:41.050Z,89.14
2022-10-27T21:14:09.476Z,89.40
2022-10-27T21:16:37.665Z,89.68
2022-10-27T21:19:07.441Z,89.75
2022-10-27T21:21:35.630Z,89.98
2022-10-27T21:24:04.353Z,89.97
2022-10-27T21:26:32.298Z,89.87
2022-10-27T21:29:00.742Z,90.31
2022-10-27T21:31:30.655Z,90.50
2022-10-27T21:34:02.811Z,90.24
2022-10-27T21:36:30.798Z,90.88
2022-10-27T21:38:58.503Z,90.71
2022-10-27T21:41:26.621Z,91.00
2022-10-27T21:43:55.824Z,91.20
2022-10-27T21:46:25.976Z,91.47
2022-10-27T21:49:00.557Z,91.55
2022-10-27T21:51:29.655Z,92.08
2022-10-27T21:54:01.885Z,91.87
2022-10-27T21:56:31.329Z,91.68
2022-10-27T21:58:59.564Z,91.52
2022-10-27T22:01:28.435Z,91.63
2022-10-27T22:03:57.355Z,91.46
2022-10-27T22:06:29.218Z,91.96
2022-10-27T22:08:57.985Z,91.63
2022-10-27T22:11:28.285Z,91.86
2022-10-27T22:13:55.914Z,91.79
2022-10-27T22:16:25.473Z,91.75
2022-10-27T22:18:57.976Z,91.62
2022-10-27T22:21:27.217Z,92.16
2022-10-27T22:23:55.056Z,91.82
2022-10-27T22:26:23.483Z,91.85
2022-10-27T22:28:51.971Z,91.83
2022-10-27T22:31:22.079Z,91.68
2022-10-27T22:33:50.803Z,91.89
2022-10-27T22:36:20.559Z,91.62
2022-10-27T22:38:55.483Z,91.86
2022-10-27T22:41:23.721Z,91.21
2022-10-27T22:43:51.814Z,91.85
2022-10-27T22:46:22.332Z,91.84
2022-10-27T22:48:50.825Z,91.65
2022-10-27T22:51:20.408Z,91.68
2022-10-27T22:53:48.820Z,91.59
2022-10-27T22:56:19.060Z,91.81
2022-10-27T22:58:48.684Z,91.45
2022-10-27T23:01:19.323Z,91.98
2022-10-27T23:03:51.367Z,92.12
2022-10-27T23:06:20.124Z,91.68
2022-10-27T23:08:51.680Z,91.61
2022-10-27T23:11:19.366Z,91.32
2022-10-27T23:13:47.163Z,91.08
2022-10-27T23:16:14.883Z,90.90
2022-10-27T23:18:42.749Z,90.48
2022-10-27T23:21:15.308Z,90.54
2022-10-27T23:23:43.604Z,90.28
2022-10-27T23:26:26.407Z,90.02
2022-10-27T23:28:56.340Z,89.98
2022-10-27T23:31:25.402Z,89.66
2022-10-27T23:33:54.764Z,89.26
2022-10-27T23:36:23.198Z,89.06
2022-10-27T23:38:51.519Z,89.37
2022-10-27T23:41:19.560Z,88.87
2022-10-27T23:43:57.831Z,88.67
2022-10-27T23:46:26.685Z,89.01
2022-10-27T23:48:54.214Z,88.48
2022-10-27T23:51:22.599Z,88.41
2022-10-27T23:53:51.399Z,88.19
2022-10-27T23:56:19.397Z,88.05
2022-10-27T23:58:47.008Z,87.99
